sensor_id;sensor_type;location;lat;lon;timestamp;P1;durP1;ratioP1;P2;durP2;ratioP2
28862;SDS011;15994;51.796;13.006;2023-03-19T00:01:26;26.63;;;16.02;;
28862;SDS011;15994;51.796;13.006;2023-03-19T00:03:53;25.70;;;15.80;;
28862;SDS011;15994;51.796;13.006;2023-03-19T00:06:20;24.10;;;15.43;;
28862;SDS011;15994;51.796;13.006;2023-03-19T00:08:46;25.65;;;15.70;;
28862;SDS011;15994;51.796;13.006;2023-03-19T00:11:13;23.88;;;16.02;;
28862;SDS011;15994;51.796;13.006;2023-03-19T00:13:40;23.85;;;15.77;;
28862;SDS011;15994;51.796;13.006;2023-03-19T00:16:06;26.63;;;16.33;;
28862;SDS011;15994;51.796;13.006;2023-03-19T00:18:33;26.15;;;16.58;;
28862;SDS011;15994;51.796;13.006;2023-03-19T00:21:00;27.15;;;17.25;;
28862;SDS011;15994;51.796;13.006;2023-03-19T00:23:26;26.42;;;17.45;;
28862;SDS011;15994;51.796;13.006;2023-03-19T00:25:53;33.13;;;21.02;;
28862;SDS011;15994;51.796;13.006;2023-03-19T00:28:19;33.30;;;21.13;;
28862;SDS011;15994;51.796;13.006;2023-03-19T00:30:46;32.75;;;19.58;;
28862;SDS011;15994;51.796;13.006;2023-03-19T00:33:13;34.30;;;19.38;;
28862;SDS011;15994;51.796;13.006;2023-03-19T00:35:39;29.92;;;19.33;;
28862;SDS011;15994;51.796;13.006;2023-03-19T00:38:06;29.55;;;17.98;;
28862;SDS011;15994;51.796;13.006;2023-03-19T00:40:32;31.17;;;18.33;;
28862;SDS011;15994;51.796;13.006;2023-03-19T00:42:59;27.02;;;17.23;;
28862;SDS011;15994;51.796;13.006;2023-03-19T00:45:26;30.58;;;18.52;;
28862;SDS011;15994;51.796;13.006;2023-03-19T00:47:54;32.83;;;20.17;;
28862;SDS011;15994;51.796;13.006;2023-03-19T00:50:22;29.73;;;16.90;;
28862;SDS011;15994;51.796;13.006;2023-03-19T00:52:49;29.42;;;17.17;;
28862;SDS011;15994;51.796;13.006;2023-03-19T00:55:16;25.88;;;16.20;;
28862;SDS011;15994;51.796;13.006;2023-03-19T00:57:43;24.77;;;16.25;;
28862;SDS011;15994;51.796;13.006;2023-03-19T01:00:10;24.25;;;15.57;;
28862;SDS011;15994;51.796;13.006;2023-03-19T01:02:37;23.70;;;16.10;;
28862;SDS011;15994;51.796;13.006;2023-03-19T01:05:04;22.60;;;15.15;;
28862;SDS011;15994;51.796;13.006;2023-03-19T01:07:32;25.63;;;16.67;;
28862;SDS011;15994;51.796;13.006;2023-03-19T01:09:58;24.52;;;16.23;;
28862;SDS011;15994;51.796;13.006;2023-03-19T01:12:25;23.27;;;15.35;;
28862;SDS011;15994;51.796;13.006;2023-03-19T01:14:51;22.90;;;16.20;;
28862;SDS011;15994;51.796;13.006;2023-03-19T01:17:18;23.73;;;15.18;;
28862;SDS011;15994;51.796;13.006;2023-03-19T01:19:44;26.10;;;15.77;;
28862;SDS011;15994;51.796;13.006;2023-03-19T01:22:11;25.25;;;15.45;;
28862;SDS011;15994;51.796;13.006;2023-03-19T01:24:40;20.67;;;14.80;;
28862;SDS011;15994;51.796;13.006;2023-03-19T01:27:06;24.30;;;15.00;;
28862;SDS011;15994;51.796;13.006;2023-03-19T01:29:33;23.10;;;15.40;;
28862;SDS011;15994;51.796;13.006;2023-03-19T01:32:00;24.60;;;15.15;;
28862;SDS011;15994;51.796;13.006;2023-03-19T01:34:27;22.65;;;14.73;;
28862;SDS011;15994;51.796;13.006;2023-03-19T01:36:53;24.40;;;15.75;;
28862;SDS011;15994;51.796;13.006;2023-03-19T01:39:20;22.50;;;14.80;;
28862;SDS011;15994;51.796;13.006;2023-03-19T01:41:47;25.08;;;15.77;;
28862;SDS011;15994;51.796;13.006;2023-03-19T01:44:32;24.20;;;15.20;;
28862;SDS011;15994;51.796;13.006;2023-03-19T01:47:02;25.15;;;15.88;;
28862;SDS011;15994;51.796;13.006;2023-03-19T01:49:39;23.92;;;15.43;;
28862;SDS011;15994;51.796;13.006;2023-03-19T01:52:06;22.95;;;15.52;;
28862;SDS011;15994;51.796;13.006;2023-03-19T01:54:33;25.20;;;15.25;;
28862;SDS011;15994;51.796;13.006;2023-03-19T01:57:02;23.13;;;15.73;;
28862;SDS011;15994;51.796;13.006;2023-03-19T01:59:35;21.77;;;14.82;;
28862;SDS011;15994;51.796;13.006;2023-03-19T02:02:07;23.10;;;15.55;;
28862;SDS011;15994;51.796;13.006;2023-03-19T02:04:42;24.02;;;15.50;;
28862;SDS011;15994;51.796;13.006;2023-03-19T02:07:11;21.50;;;14.82;;
28862;SDS011;15994;51.796;13.006;2023-03-19T02:09:39;25.45;;;15.23;;
28862;SDS011;15994;51.796;13.006;2023-03-19T02:12:06;25.10;;;15.82;;
28862;SDS011;15994;51.796;13.006;2023-03-19T02:14:34;24.23;;;15.82;;
28862;SDS011;15994;51.796;13.006;2023-03-19T02:17:00;25.13;;;15.45;;
28862;SDS011;15994;51.796;13.006;2023-03-19T02:19:30;23.35;;;14.85;;
28862;SDS011;15994;51.796;13.006;2023-03-19T02:22:07;24.10;;;15.10;;
28862;SDS011;15994;51.796;13.006;2023-03-19T02:24:40;25.30;;;14.88;;
28862;SDS011;15994;51.796;13.006;2023-03-19T02:27:15;24.80;;;15.05;;
28862;SDS011;15994;51.796;13.006;2023-03-19T02:29:41;24.10;;;15.10;;
28862;SDS011;15994;51.796;13.006;2023-03-19T02:32:08;24.65;;;16.17;;
28862;SDS011;15994;51.796;13.006;2023-03-19T02:34:36;22.02;;;14.73;;
28862;SDS011;15994;51.796;13.006;2023-03-19T02:37:12;27.98;;;15.52;;
28862;SDS011;15994;51.796;13.006;2023-03-19T02:40:01;24.10;;;14.18;;
28862;SDS011;15994;51.796;13.006;2023-03-19T02:42:31;24.33;;;15.10;;
28862;SDS011;15994;51.796;13.006;2023-03-19T02:44:58;22.92;;;15.07;;
28862;SDS011;15994;51.796;13.006;2023-03-19T02:47:25;22.27;;;14.93;;
28862;SDS011;15994;51.796;13.006;2023-03-19T02:49:52;21.65;;;14.45;;
28862;SDS011;15994;51.796;13.006;2023-03-19T02:52:19;22.98;;;15.13;;
28862;SDS011;15994;51.796;13.006;2023-03-19T02:54:46;23.35;;;15.27;;
28862;SDS011;15994;51.796;13.006;2023-03-19T02:57:12;23.10;;;14.65;;
28862;SDS011;15994;51.796;13.006;2023-03-19T02:59:39;20.48;;;15.40;;
28862;SDS011;15994;51.796;13.006;2023-03-19T03:02:06;23.25;;;15.20;;
28862;SDS011;15994;51.796;13.006;2023-03-19T03:04:34;21.00;;;14.10;;
28862;SDS011;15994;51.796;13.006;2023-03-19T03:07:03;21.77;;;15.10;;
28862;SDS011;15994;51.796;13.006;2023-03-19T03:09:30;21.70;;;14.82;;
28862;SDS011;15994;51.796;13.006;2023-03-19T03:11:56;25.90;;;14.93;;
28862;SDS011;15994;51.796;13.006;2023-03-19T03:14:23;23.25;;;15.07;;
28862;SDS011;15994;51.796;13.006;2023-03-19T03:16:49;23.35;;;14.57;;
28862;SDS011;15994;51.796;13.006;2023-03-19T03:19:16;22.52;;;14.30;;
28862;SDS011;15994;51.796;13.006;2023-03-19T03:21:43;24.13;;;14.23;;
28862;SDS011;15994;51.796;13.006;2023-03-19T03:24:09;23.38;;;14.70;;
28862;SDS011;15994;51.796;13.006;2023-03-19T03:26:37;22.60;;;15.35;;
28862;SDS011;15994;51.796;13.006;2023-03-19T03:29:04;21.58;;;15.07;;
28862;SDS011;15994;51.796;13.006;2023-03-19T03:31:31;22.15;;;14.10;;
28862;SDS011;15994;51.796;13.006;2023-03-19T03:33:58;21.00;;;13.95;;
28862;SDS011;15994;51.796;13.006;2023-03-19T03:36:26;22.33;;;15.18;;
28862;SDS011;15994;51.796;13.006;2023-03-19T03:38:53;22.40;;;14.70;;
28862;SDS011;15994;51.796;13.006;2023-03-19T03:41:20;20.90;;;14.00;;
28862;SDS011;15994;51.796;13.006;2023-03-19T03:43:47;20.58;;;13.88;;
28862;SDS011;15994;51.796;13.006;2023-03-19T03:46:13;21.27;;;14.48;;
28862;SDS011;15994;51.796;13.006;2023-03-19T03:48:40;23.48;;;14.05;;
28862;SDS011;15994;51.796;13.006;2023-03-19T03:51:06;20.42;;;13.85;;
28862;SDS011;15994;51.796;13.006;2023-03-19T03:53:33;20.95;;;14.48;;
28862;SDS011;15994;51.796;13.006;2023-03-19T03:56:00;26.48;;;14.93;;
28862;SDS011;15994;51.796;13.006;2023-03-19T03:58:26;22.30;;;14.50;;
28862;SDS011;15994;51.796;13.006;2023-03-19T04:00:53;23.02;;;14.23;;
28862;SDS011;15994;51.796;13.006;2023-03-19T04:03:20;21.05;;;13.95;;
28862;SDS011;15994;51.796;13.006;2023-03-19T04:05:48;24.80;;;15.05;;
28862;SDS011;15994;51.796;13.006;2023-03-19T04:08:15;23.27;;;14.75;;
28862;SDS011;15994;51.796;13.006;2023-03-19T04:10:42;22.20;;;14.95;;
28862;SDS011;15994;51.796;13.006;2023-03-19T04:13:09;21.30;;;14.77;;
28862;SDS011;15994;51.796;13.006;2023-03-19T04:15:36;23.75;;;14.68;;
28862;SDS011;15994;51.796;13.006;2023-03-19T04:18:03;19.98;;;13.80;;
28862;SDS011;15994;51.796;13.006;2023-03-19T04:20:29;21.42;;;14.50;;
28862;SDS011;15994;51.796;13.006;2023-03-19T04:22:56;21.52;;;14.15;;
28862;SDS011;15994;51.796;13.006;2023-03-19T04:25:22;25.95;;;14.40;;
28862;SDS011;15994;51.796;13.006;2023-03-19T04:27:49;20.65;;;14.07;;
28862;SDS011;15994;51.796;13.006;2023-03-19T04:30:16;23.73;;;14.40;;
28862;SDS011;15994;51.796;13.006;2023-03-19T04:32:43;24.17;;;14.00;;
28862;SDS011;15994;51.796;13.006;2023-03-19T04:35:10;23.75;;;14.23;;
28862;SDS011;15994;51.796;13.006;2023-03-19T04:37:37;23.80;;;14.68;;
28862;SDS011;15994;51.796;13.006;2023-03-19T04:40:03;22.08;;;14.48;;
28862;SDS011;15994;51.796;13.006;2023-03-19T04:42:30;21.63;;;14.75;;
28862;SDS011;15994;51.796;13.006;2023-03-19T04:44:57;22.65;;;14.65;;
28862;SDS011;15994;51.796;13.006;2023-03-19T04:47:23;23.63;;;14.73;;
28862;SDS011;15994;51.796;13.006;2023-03-19T04:49:50;21.60;;;15.15;;
28862;SDS011;15994;51.796;13.006;2023-03-19T04:52:16;22.80;;;14.18;;
28862;SDS011;15994;51.796;13.006;2023-03-19T04:54:43;22.15;;;14.32;;
28862;SDS011;15994;51.796;13.006;2023-03-19T04:57:10;22.98;;;15.38;;
28862;SDS011;15994;51.796;13.006;2023-03-19T04:59:36;22.77;;;14.98;;
28862;SDS011;15994;51.796;13.006;2023-03-19T05:02:03;24.38;;;14.32;;
28862;SDS011;15994;51.796;13.006;2023-03-19T05:04:30;19.40;;;14.20;;
28862;SDS011;15994;51.796;13.006;2023-03-19T05:06:56;23.50;;;16.50;;
28862;SDS011;15994;51.796;13.006;2023-03-19T05:09:23;23.58;;;15.27;;
28862;SDS011;15994;51.796;13.006;2023-03-19T05:11:50;21.70;;;14.90;;
28862;SDS011;15994;51.796;13.006;2023-03-19T05:14:16;24.38;;;15.90;;
28862;SDS011;15994;51.796;13.006;2023-03-19T05:16:43;24.38;;;15.63;;
28862;SDS011;15994;51.796;13.006;2023-03-19T05:19:09;23.25;;;15.50;;
28862;SDS011;15994;51.796;13.006;2023-03-19T05:21:36;30.90;;;15.95;;
28862;SDS011;15994;51.796;13.006;2023-03-19T05:24:03;21.67;;;14.68;;
28862;SDS011;15994;51.796;13.006;2023-03-19T05:26:29;26.33;;;15.77;;
28862;SDS011;15994;51.796;13.006;2023-03-19T05:28:56;22.15;;;15.32;;
28862;SDS011;15994;51.796;13.006;2023-03-19T05:31:23;22.33;;;14.43;;
28862;SDS011;15994;51.796;13.006;2023-03-19T05:33:49;24.25;;;15.52;;
28862;SDS011;15994;51.796;13.006;2023-03-19T05:36:16;27.67;;;15.80;;
28862;SDS011;15994;51.796;13.006;2023-03-19T05:38:43;23.90;;;15.85;;
28862;SDS011;15994;51.796;13.006;2023-03-19T05:41:09;25.02;;;15.02;;
28862;SDS011;15994;51.796;13.006;2023-03-19T05:43:36;25.75;;;16.42;;
28862;SDS011;15994;51.796;13.006;2023-03-19T05:46:02;23.25;;;16.70;;
28862;SDS011;15994;51.796;13.006;2023-03-19T05:48:29;24.30;;;15.35;;
28862;SDS011;15994;51.796;13.006;2023-03-19T05:50:55;25.58;;;17.17;;
28862;SDS011;15994;51.796;13.006;2023-03-19T05:53:23;25.65;;;15.93;;
28862;SDS011;15994;51.796;13.006;2023-03-19T05:55:49;25.23;;;16.13;;
28862;SDS011;15994;51.796;13.006;2023-03-19T05:58:16;26.42;;;16.27;;
28862;SDS011;15994;51.796;13.006;2023-03-19T06:00:42;22.73;;;15.48;;
28862;SDS011;15994;51.796;13.006;2023-03-19T06:03:09;25.40;;;15.48;;
28862;SDS011;15994;51.796;13.006;2023-03-19T06:05:36;23.45;;;15.70;;
28862;SDS011;15994;51.796;13.006;2023-03-19T06:08:02;20.38;;;15.02;;
28862;SDS011;15994;51.796;13.006;2023-03-19T06:10:29;28.63;;;16.10;;
28862;SDS011;15994;51.796;13.006;2023-03-19T06:12:56;23.45;;;15.70;;
28862;SDS011;15994;51.796;13.006;2023-03-19T06:15:22;22.98;;;15.48;;
28862;SDS011;15994;51.796;13.006;2023-03-19T06:17:49;22.35;;;15.52;;
28862;SDS011;15994;51.796;13.006;2023-03-19T06:20:15;22.85;;;15.27;;
28862;SDS011;15994;51.796;13.006;2023-03-19T06:22:43;24.85;;;16.02;;
28862;SDS011;15994;51.796;13.006;2023-03-19T06:25:09;22.48;;;16.15;;
28862;SDS011;15994;51.796;13.006;2023-03-19T06:27:36;27.05;;;15.80;;
28862;SDS011;15994;51.796;13.006;2023-03-19T06:30:03;21.95;;;15.50;;
28862;SDS011;15994;51.796;13.006;2023-03-19T06:32:31;25.80;;;15.15;;
28862;SDS011;15994;51.796;13.006;2023-03-19T06:34:57;24.55;;;14.88;;
28862;SDS011;15994;51.796;13.006;2023-03-19T06:37:24;25.67;;;14.95;;
28862;SDS011;15994;51.796;13.006;2023-03-19T06:39:50;21.58;;;15.20;;
28862;SDS011;15994;51.796;13.006;2023-03-19T06:42:18;23.42;;;16.13;;
28862;SDS011;15994;51.796;13.006;2023-03-19T06:44:45;22.95;;;15.18;;
28862;SDS011;15994;51.796;13.006;2023-03-19T06:47:12;26.38;;;15.93;;
28862;SDS011;15994;51.796;13.006;2023-03-19T06:49:39;24.98;;;15.70;;
28862;SDS011;15994;51.796;13.006;2023-03-19T06:52:06;22.90;;;15.27;;
28862;SDS011;15994;51.796;13.006;2023-03-19T06:54:32;21.88;;;15.02;;
28862;SDS011;15994;51.796;13.006;2023-03-19T06:56:59;24.15;;;15.70;;
28862;SDS011;15994;51.796;13.006;2023-03-19T06:59:25;23.35;;;15.13;;
28862;SDS011;15994;51.796;13.006;2023-03-19T07:01:52;24.60;;;14.93;;
28862;SDS011;15994;51.796;13.006;2023-03-19T07:04:18;22.92;;;14.82;;
28862;SDS011;15994;51.796;13.006;2023-03-19T07:06:45;21.42;;;14.82;;
28862;SDS011;15994;51.796;13.006;2023-03-19T07:09:12;23.92;;;15.57;;
28862;SDS011;15994;51.796;13.006;2023-03-19T07:11:38;21.33;;;15.00;;
28862;SDS011;15994;51.796;13.006;2023-03-19T07:14:05;23.30;;;14.43;;
28862;SDS011;15994;51.796;13.006;2023-03-19T07:16:31;22.75;;;15.30;;
28862;SDS011;15994;51.796;13.006;2023-03-19T07:18:58;22.80;;;14.98;;
28862;SDS011;15994;51.796;13.006;2023-03-19T07:21:24;21.73;;;15.15;;
28862;SDS011;15994;51.796;13.006;2023-03-19T07:23:51;21.58;;;14.50;;
28862;SDS011;15994;51.796;13.006;2023-03-19T07:26:18;21.15;;;14.55;;
28862;SDS011;15994;51.796;13.006;2023-03-19T07:28:44;22.63;;;14.82;;
28862;SDS011;15994;51.796;13.006;2023-03-19T07:31:11;20.52;;;14.13;;
28862;SDS011;15994;51.796;13.006;2023-03-19T07:33:38;22.55;;;14.52;;
28862;SDS011;15994;51.796;13.006;2023-03-19T07:36:05;24.33;;;14.32;;
28862;SDS011;15994;51.796;13.006;2023-03-19T07:38:32;18.90;;;13.75;;
28862;SDS011;15994;51.796;13.006;2023-03-19T07:40:58;21.42;;;14.27;;
28862;SDS011;15994;51.796;13.006;2023-03-19T07:43:25;23.17;;;15.65;;
28862;SDS011;15994;51.796;13.006;2023-03-19T07:45:52;35.88;;;22.27;;
28862;SDS011;15994;51.796;13.006;2023-03-19T07:48:18;21.48;;;14.25;;
28862;SDS011;15994;51.796;13.006;2023-03-19T07:50:45;20.85;;;13.70;;
28862;SDS011;15994;51.796;13.006;2023-03-19T07:53:12;18.55;;;13.80;;
28862;SDS011;15994;51.796;13.006;2023-03-19T07:55:38;23.85;;;16.70;;
28862;SDS011;15994;51.796;13.006;2023-03-19T07:58:05;19.15;;;12.80;;
28862;SDS011;15994;51.796;13.006;2023-03-19T08:00:31;19.02;;;12.95;;
28862;SDS011;15994;51.796;13.006;2023-03-19T08:02:58;20.42;;;13.30;;
28862;SDS011;15994;51.796;13.006;2023-03-19T08:05:25;21.10;;;13.52;;
28862;SDS011;15994;51.796;13.006;2023-03-19T08:07:51;20.50;;;13.65;;
28862;SDS011;15994;51.796;13.006;2023-03-19T08:10:18;21.00;;;13.95;;
28862;SDS011;15994;51.796;13.006;2023-03-19T08:12:44;20.67;;;14.40;;
28862;SDS011;15994;51.796;13.006;2023-03-19T08:15:11;22.65;;;14.15;;
28862;SDS011;15994;51.796;13.006;2023-03-19T08:17:38;21.48;;;14.35;;
28862;SDS011;15994;51.796;13.006;2023-03-19T08:20:06;22.60;;;13.85;;
28862;SDS011;15994;51.796;13.006;2023-03-19T08:22:34;20.33;;;13.23;;
28862;SDS011;15994;51.796;13.006;2023-03-19T08:25:02;18.60;;;12.45;;
28862;SDS011;15994;51.796;13.006;2023-03-19T08:27:31;19.77;;;13.23;;
28862;SDS011;15994;51.796;13.006;2023-03-19T08:30:00;21.85;;;14.13;;
28862;SDS011;15994;51.796;13.006;2023-03-19T08:32:31;20.35;;;13.55;;
28862;SDS011;15994;51.796;13.006;2023-03-19T08:34:57;19.20;;;12.75;;
28862;SDS011;15994;51.796;13.006;2023-03-19T08:37:24;19.98;;;13.10;;
28862;SDS011;15994;51.796;13.006;2023-03-19T08:39:51;18.63;;;12.40;;
28862;SDS011;15994;51.796;13.006;2023-03-19T08:42:18;17.65;;;11.95;;
28862;SDS011;15994;51.796;13.006;2023-03-19T08:44:45;18.02;;;12.77;;
28862;SDS011;15994;51.796;13.006;2023-03-19T08:47:13;19.33;;;12.55;;
28862;SDS011;15994;51.796;13.006;2023-03-19T08:49:40;21.60;;;12.40;;
28862;SDS011;15994;51.796;13.006;2023-03-19T08:52:07;29.08;;;17.70;;
28862;SDS011;15994;51.796;13.006;2023-03-19T08:54:34;21.80;;;13.48;;
28862;SDS011;15994;51.796;13.006;2023-03-19T08:57:01;24.23;;;12.70;;
28862;SDS011;15994;51.796;13.006;2023-03-19T08:59:27;17.92;;;12.65;;
28862;SDS011;15994;51.796;13.006;2023-03-19T09:01:54;18.63;;;12.27;;
28862;SDS011;15994;51.796;13.006;2023-03-19T09:04:21;20.23;;;12.55;;
28862;SDS011;15994;51.796;13.006;2023-03-19T09:06:47;21.15;;;13.60;;
28862;SDS011;15994;51.796;13.006;2023-03-19T09:09:15;18.85;;;12.05;;
28862;SDS011;15994;51.796;13.006;2023-03-19T09:11:43;20.73;;;13.45;;
28862;SDS011;15994;51.796;13.006;2023-03-19T09:14:10;22.27;;;13.68;;
28862;SDS011;15994;51.796;13.006;2023-03-19T09:16:37;22.40;;;14.65;;
28862;SDS011;15994;51.796;13.006;2023-03-19T09:19:04;18.90;;;12.15;;
28862;SDS011;15994;51.796;13.006;2023-03-19T09:21:30;21.73;;;14.85;;
28862;SDS011;15994;51.796;13.006;2023-03-19T09:23:57;22.33;;;13.70;;
28862;SDS011;15994;51.796;13.006;2023-03-19T09:26:23;21.63;;;12.10;;
28862;SDS011;15994;51.796;13.006;2023-03-19T09:28:50;20.48;;;11.93;;
28862;SDS011;15994;51.796;13.006;2023-03-19T09:31:16;21.88;;;12.60;;
28862;SDS011;15994;51.796;13.006;2023-03-19T09:33:43;18.85;;;13.45;;
28862;SDS011;15994;51.796;13.006;2023-03-19T09:36:10;20.88;;;14.45;;
28862;SDS011;15994;51.796;13.006;2023-03-19T09:38:37;19.20;;;12.43;;
28862;SDS011;15994;51.796;13.006;2023-03-19T09:46:10;18.45;;;11.43;;
28862;SDS011;15994;51.796;13.006;2023-03-19T09:48:42;17.25;;;11.25;;
28862;SDS011;15994;51.796;13.006;2023-03-19T09:51:16;18.35;;;11.60;;
28862;SDS011;15994;51.796;13.006;2023-03-19T09:53:52;19.65;;;11.13;;
28862;SDS011;15994;51.796;13.006;2023-03-19T09:56:23;16.70;;;10.73;;
28862;SDS011;15994;51.796;13.006;2023-03-19T09:58:51;16.63;;;10.85;;
28862;SDS011;15994;51.796;13.006;2023-03-19T10:01:25;16.88;;;11.55;;
28862;SDS011;15994;51.796;13.006;2023-03-19T10:06:39;15.73;;;11.15;;
28862;SDS011;15994;51.796;13.006;2023-03-19T10:17:47;16.23;;;10.05;;
28862;SDS011;15994;51.796;13.006;2023-03-19T10:20:28;14.68;;;9.70;;
28862;SDS011;15994;51.796;13.006;2023-03-19T10:22:59;13.73;;;10.18;;
28862;SDS011;15994;51.796;13.006;2023-03-19T10:25:38;15.02;;;10.23;;
28862;SDS011;15994;51.796;13.006;2023-03-19T10:28:15;16.38;;;11.70;;
28862;SDS011;15994;51.796;13.006;2023-03-19T10:30:52;14.30;;;9.70;;
28862;SDS011;15994;51.796;13.006;2023-03-19T10:33:31;15.45;;;9.95;;
28862;SDS011;15994;51.796;13.006;2023-03-19T10:36:17;15.98;;;9.98;;
28862;SDS011;15994;51.796;13.006;2023-03-19T10:38:46;14.18;;;9.85;;
28862;SDS011;15994;51.796;13.006;2023-03-19T10:41:22;18.67;;;11.23;;
28862;SDS011;15994;51.796;13.006;2023-03-19T10:44:04;15.38;;;10.02;;
28862;SDS011;15994;51.796;13.006;2023-03-19T10:46:37;16.10;;;9.52;;
28862;SDS011;15994;51.796;13.006;2023-03-19T10:49:09;14.40;;;9.88;;
28862;SDS011;15994;51.796;13.006;2023-03-19T10:51:37;15.88;;;10.90;;
28862;SDS011;15994;51.796;13.006;2023-03-19T10:54:16;20.50;;;11.50;;
28862;SDS011;15994;51.796;13.006;2023-03-19T10:56:45;17.13;;;10.32;;
28862;SDS011;15994;51.796;13.006;2023-03-19T10:59:19;16.27;;;9.70;;
28862;SDS011;15994;51.796;13.006;2023-03-19T11:01:56;15.05;;;10.25;;
28862;SDS011;15994;51.796;13.006;2023-03-19T11:04:25;14.00;;;10.65;;
28862;SDS011;15994;51.796;13.006;2023-03-19T11:07:01;16.15;;;10.50;;
28862;SDS011;15994;51.796;13.006;2023-03-19T11:09:36;15.35;;;10.00;;
28862;SDS011;15994;51.796;13.006;2023-03-19T11:12:14;14.20;;;9.73;;
28862;SDS011;15994;51.796;13.006;2023-03-19T11:15:15;17.75;;;9.95;;
28862;SDS011;15994;51.796;13.006;2023-03-19T11:17:46;18.70;;;10.43;;
28862;SDS011;15994;51.796;13.006;2023-03-19T11:23:00;15.02;;;9.98;;
28862;SDS011;15994;51.796;13.006;2023-03-19T11:25:36;14.07;;;9.15;;
28862;SDS011;15994;51.796;13.006;2023-03-19T11:28:15;15.82;;;9.80;;
28862;SDS011;15994;51.796;13.006;2023-03-19T11:33:37;16.33;;;9.43;;
28862;SDS011;15994;51.796;13.006;2023-03-19T11:36:28;13.02;;;9.25;;
28862;SDS011;15994;51.796;13.006;2023-03-19T11:42:07;14.98;;;9.00;;
28862;SDS011;15994;51.796;13.006;2023-03-19T12:02:21;14.63;;;9.02;;
28862;SDS011;15994;51.796;13.006;2023-03-19T12:04:52;15.27;;;9.82;;
28862;SDS011;15994;51.796;13.006;2023-03-19T12:07:31;14.00;;;9.05;;
28862;SDS011;15994;51.796;13.006;2023-03-19T12:10:19;14.55;;;9.02;;
28862;SDS011;15994;51.796;13.006;2023-03-19T12:13:43;14.48;;;8.63;;
28862;SDS011;15994;51.796;13.006;2023-03-19T12:24:39;13.57;;;7.75;;
28862;SDS011;15994;51.796;13.006;2023-03-19T12:27:24;12.75;;;7.40;;
28862;SDS011;15994;51.796;13.006;2023-03-19T12:35:42;11.35;;;7.50;;
28862;SDS011;15994;51.796;13.006;2023-03-19T12:40:52;12.73;;;7.03;;
28862;SDS011;15994;51.796;13.006;2023-03-19T12:43:35;11.90;;;7.07;;
28862;SDS011;15994;51.796;13.006;2023-03-19T12:46:14;12.60;;;6.97;;
28862;SDS011;15994;51.796;13.006;2023-03-19T12:48:55;14.07;;;7.88;;
28862;SDS011;15994;51.796;13.006;2023-03-19T12:51:27;13.00;;;7.75;;
28862;SDS011;15994;51.796;13.006;2023-03-19T12:54:20;11.10;;;7.40;;
28862;SDS011;15994;51.796;13.006;2023-03-19T12:56:53;11.35;;;7.75;;
28862;SDS011;15994;51.796;13.006;2023-03-19T12:59:57;13.05;;;7.15;;
28862;SDS011;15994;51.796;13.006;2023-03-19T13:05:16;14.77;;;7.63;;
28862;SDS011;15994;51.796;13.006;2023-03-19T13:10:34;11.98;;;6.75;;
28862;SDS011;15994;51.796;13.006;2023-03-19T13:13:04;9.40;;;6.93;;
28862;SDS011;15994;51.796;13.006;2023-03-19T13:15:55;10.25;;;7.00;;
28862;SDS011;15994;51.796;13.006;2023-03-19T13:18:34;9.65;;;6.40;;
28862;SDS011;15994;51.796;13.006;2023-03-19T13:21:26;10.05;;;5.95;;
28862;SDS011;15994;51.796;13.006;2023-03-19T13:24:13;9.52;;;6.25;;
28862;SDS011;15994;51.796;13.006;2023-03-19T13:26:41;9.10;;;6.40;;
28862;SDS011;15994;51.796;13.006;2023-03-19T13:29:19;12.82;;;6.65;;
28862;SDS011;15994;51.796;13.006;2023-03-19T13:31:46;10.70;;;6.18;;
28862;SDS011;15994;51.796;13.006;2023-03-19T13:36:47;11.05;;;6.90;;
28862;SDS011;15994;51.796;13.006;2023-03-19T13:39:26;13.32;;;6.93;;
28862;SDS011;15994;51.796;13.006;2023-03-19T13:44:52;10.30;;;6.97;;
28862;SDS011;15994;51.796;13.006;2023-03-19T13:52:39;10.52;;;7.40;;
28862;SDS011;15994;51.796;13.006;2023-03-19T13:57:53;12.73;;;6.70;;
28862;SDS011;15994;51.796;13.006;2023-03-19T14:05:51;12.98;;;6.97;;
28862;SDS011;15994;51.796;13.006;2023-03-19T14:08:21;11.30;;;7.30;;
28862;SDS011;15994;51.796;13.006;2023-03-19T14:10:54;11.80;;;6.80;;
28862;SDS011;15994;51.796;13.006;2023-03-19T14:13:30;12.13;;;7.30;;
28862;SDS011;15994;51.796;13.006;2023-03-19T14:16:12;11.57;;;7.60;;
28862;SDS011;15994;51.796;13.006;2023-03-19T14:18:47;11.80;;;7.55;;
28862;SDS011;15994;51.796;13.006;2023-03-19T14:21:15;12.35;;;7.28;;
28862;SDS011;15994;51.796;13.006;2023-03-19T14:23:55;9.75;;;7.43;;
28862;SDS011;15994;51.796;13.006;2023-03-19T14:27:16;11.00;;;7.47;;
28862;SDS011;15994;51.796;13.006;2023-03-19T14:29:46;11.75;;;6.50;;
28862;SDS011;15994;51.796;13.006;2023-03-19T14:32:18;10.20;;;6.72;;
28862;SDS011;15994;51.796;13.006;2023-03-19T14:34:49;12.85;;;7.03;;
28862;SDS011;15994;51.796;13.006;2023-03-19T14:37:22;11.60;;;6.82;;
28862;SDS011;15994;51.796;13.006;2023-03-19T14:40:02;8.70;;;6.45;;
28862;SDS011;15994;51.796;13.006;2023-03-19T14:42:38;13.18;;;7.28;;
28862;SDS011;15994;51.796;13.006;2023-03-19T14:45:30;10.52;;;7.30;;
28862;SDS011;15994;51.796;13.006;2023-03-19T14:48:13;11.15;;;7.50;;
28862;SDS011;15994;51.796;13.006;2023-03-19T14:53:43;11.20;;;7.10;;
28862;SDS011;15994;51.796;13.006;2023-03-19T14:56:15;10.88;;;6.75;;
28862;SDS011;15994;51.796;13.006;2023-03-19T14:58:50;9.88;;;6.53;;
28862;SDS011;15994;51.796;13.006;2023-03-19T15:01:19;14.05;;;7.70;;
28862;SDS011;15994;51.796;13.006;2023-03-19T15:03:55;12.60;;;7.30;;
28862;SDS011;15994;51.796;13.006;2023-03-19T15:06:35;11.82;;;7.95;;
28862;SDS011;15994;51.796;13.006;2023-03-19T15:12:08;13.40;;;8.80;;
28862;SDS011;15994;51.796;13.006;2023-03-19T15:14:56;15.27;;;8.95;;
28862;SDS011;15994;51.796;13.006;2023-03-19T15:17:27;11.13;;;8.20;;
28862;SDS011;15994;51.796;13.006;2023-03-19T15:19:57;12.32;;;8.70;;
28862;SDS011;15994;51.796;13.006;2023-03-19T15:22:30;11.55;;;8.23;;
28862;SDS011;15994;51.796;13.006;2023-03-19T15:25:05;13.18;;;8.07;;
28862;SDS011;15994;51.796;13.006;2023-03-19T15:27:39;11.82;;;8.07;;
28862;SDS011;15994;51.796;13.006;2023-03-19T15:32:45;13.50;;;7.25;;
28862;SDS011;15994;51.796;13.006;2023-03-19T15:35:12;10.60;;;6.68;;
28862;SDS011;15994;51.796;13.006;2023-03-19T15:37:39;13.52;;;7.05;;
28862;SDS011;15994;51.796;13.006;2023-03-19T15:40:09;11.65;;;6.85;;
28862;SDS011;15994;51.796;13.006;2023-03-19T15:42:39;12.70;;;6.47;;
28862;SDS011;15994;51.796;13.006;2023-03-19T15:45:07;11.57;;;7.00;;
28862;SDS011;15994;51.796;13.006;2023-03-19T15:47:38;11.45;;;6.70;;
28862;SDS011;15994;51.796;13.006;2023-03-19T15:50:13;15.02;;;7.00;;
28862;SDS011;15994;51.796;13.006;2023-03-19T15:52:43;11.88;;;6.75;;
28862;SDS011;15994;51.796;13.006;2023-03-19T15:55:15;15.20;;;7.70;;
28862;SDS011;15994;51.796;13.006;2023-03-19T15:57:45;11.48;;;6.75;;
28862;SDS011;15994;51.796;13.006;2023-03-19T16:00:12;10.48;;;6.32;;
28862;SDS011;15994;51.796;13.006;2023-03-19T16:02:40;11.35;;;6.40;;